Time;durP1;ratioP1;P1;durP2;ratioP2;P2;SDS_P1;SDS_P2;PMS_P1;PMS_P2;Temp;Humidity;BMP_temperature;BMP_pressure;BME280_temperature;BME280_humidity;BME280_pressure;Samples;Min_cycle;Max_cycle;Signal;HPM_P1;HPM_P2
2023/08/08 00:00:33;;;;;;;4.03;2.15;;;;;;;11.57;100.00;98250.22;2603915;28;20045;-86
2023/08/08 00:02:09;;;;;;;5.07;2.10;;;;;;;11.43;100.00;98248.09;2603482;28;20053;-86
2023/08/08 00:03:25;;;;;;;5.97;2.40;;;;;;;11.51;100.00;98238.16;2603766;28;20052;-86
2023/08/08 00:04:40;;;;;;;3.17;2.13;;;;;;;11.70;100.00;98238.38;2592862;28;20050;-86
2023/08/08 00:05:56;;;;;;;4.65;2.15;;;;;;;11.75;100.00;98246.09;2597116;28;20053;-86
2023/08/08 00:07:12;;;;;;;4.40;2.10;;;;;;;11.51;100.00;98250.44;2603708;28;20049;-86
2023/08/08 00:08:27;;;;;;;4.15;2.25;;;;;;;11.46;100.00;98245.34;2603726;28;20573;-86
2023/08/08 00:09:43;;;;;;;4.15;2.28;;;;;;;11.46;100.00;98250.59;2603676;28;20045;-86
2023/08/08 00:10:58;;;;;;;3.45;2.08;;;;;;;11.36;100.00;98242.19;2603728;28;20433;-86
2023/08/08 00:12:14;;;;;;;9.00;3.97;;;;;;;11.61;100.00;98238.72;2603663;28;20413;-86
2023/08/08 00:13:29;;;;;;;3.40;2.17;;;;;;;11.42;100.00;98244.59;2603576;28;20045;-86
2023/08/08 00:14:45;;;;;;;3.90;2.42;;;;;;;11.58;100.00;98246.69;2592810;28;20054;-86
2023/08/08 00:16:00;;;;;;;5.28;2.15;;;;;;;11.67;100.00;98240.28;2586709;28;20053;-86
2023/08/08 00:17:16;;;;;;;3.70;1.98;;;;;;;11.59;100.00;98243.13;2597041;28;20103;-86
2023/08/08 00:18:32;;;;;;;3.50;1.77;;;;;;;11.56;100.00;98246.75;2603670;28;20045;-86
2023/08/08 00:19:47;;;;;;;6.82;2.40;;;;;;;11.34;100.00;98241.41;2603854;28;20045;-86
2023/08/08 00:21:03;;;;;;;4.10;2.10;;;;;;;11.58;100.00;98237.06;2603758;28;20056;-86
2023/08/08 00:22:18;;;;;;;2.35;1.85;;;;;;;11.56;100.00;98240.63;2603652;28;20042;-87
2023/08/08 00:23:34;;;;;;;3.65;1.92;;;;;;;11.52;100.00;98241.66;2603691;28;20041;-85
2023/08/08 00:24:49;;;;;;;3.38;2.20;;;;;;;11.19;100.00;98242.75;2603633;28;20049;-86
2023/08/08 00:26:05;;;;;;;3.40;2.15;;;;;;;11.40;100.00;98242.97;2603585;28;20046;-86
2023/08/08 00:27:20;;;;;;;7.93;2.28;;;;;;;11.40;100.00;98242.97;2603570;28;20116;-86
2023/08/08 00:28:36;;;;;;;3.30;1.85;;;;;;;11.52;100.00;98241.66;2603495;28;20042;-86
2023/08/08 00:29:53;;;;;;;4.97;2.22;;;;;;;11.11;100.00;98232.53;2603644;28;20068;-86
2023/08/08 00:31:08;;;;;;;3.30;2.40;;;;;;;11.48;100.00;98234.81;2603426;28;20456;-86
2023/08/08 00:32:24;;;;;;;4.45;2.10;;;;;;;11.62;100.00;98242.19;2603561;28;20049;-86
2023/08/08 00:33:39;;;;;;;4.28;2.05;;;;;;;11.42;100.00;98239.34;2603565;28;20425;-86
2023/08/08 00:34:55;;;;;;;2.33;1.83;;;;;;;11.61;100.00;98241.34;2603592;28;20037;-86
2023/08/08 00:36:10;;;;;;;4.47;2.33;;;;;;;11.59;100.00;98243.13;2603384;28;20049;-86
2023/08/08 00:37:26;;;;;;;4.43;2.00;;;;;;;11.60;100.00;98239.63;2603548;28;20497;-86
2023/08/08 00:38:41;;;;;;;3.58;2.30;;;;;;;11.51;100.00;98239.94;2603531;28;20100;-86
2023/08/08 00:39:57;;;;;;;3.30;2.17;;;;;;;11.57;100.00;98242.34;2602518;28;20057;-86
2023/08/08 00:41:12;;;;;;;3.53;2.40;;;;;;;11.70;100.00;98240.16;2603481;28;20041;-86
2023/08/08 00:42:28;;;;;;;3.55;2.30;;;;;;;11.68;100.00;98240.19;2603526;28;20069;-86
2023/08/08 00:43:44;;;;;;;3.00;2.15;;;;;;;11.50;100.00;98233.00;2603299;28;20041;-86
2023/08/08 00:45:03;;;;;;;10.02;2.63;;;;;;;11.69;100.00;98239.28;2603646;28;20050;-86
2023/08/08 00:46:21;;;;;;;5.28;2.22;;;;;;;11.53;100.00;98232.88;2592520;28;20096;-86
2023/08/08 00:47:37;;;;;;;5.47;2.13;;;;;;;11.46;100.00;98237.50;2597300;28;20049;-86
2023/08/08 00:48:53;;;;;;;3.28;2.55;;;;;;;11.41;100.00;98235.03;2603415;28;20045;-86
2023/08/08 00:50:10;;;;;;;4.68;2.33;;;;;;;11.46;100.00;98237.50;2592518;28;20057;-86
2023/08/08 00:51:25;;;;;;;3.42;2.10;;;;;;;11.38;100.00;98229.91;2596884;28;20049;-86
2023/08/08 00:52:42;;;;;;;4.90;2.03;;;;;;;11.54;100.00;98231.97;2603469;28;20041;-86
2023/08/08 00:53:58;;;;;;;2.75;2.10;;;;;;;11.67;100.00;98235.88;2603402;28;20045;-86
2023/08/08 00:55:14;;;;;;;3.70;2.00;;;;;;;11.85;100.00;98238.72;2603348;28;20417;-86
2023/08/08 00:56:31;;;;;;;4.53;2.25;;;;;;;12.08;100.00;98237.06;2603591;28;20073;-86
2023/08/08 00:57:47;;;;;;;3.00;2.08;;;;;;;12.05;100.00;98234.56;2592253;28;20045;-86
2023/08/08 00:59:03;;;;;;;2.92;1.80;;;;;;;12.15;100.00;98247.28;2596752;28;20386;-86
2023/08/08 01:00:19;;;;;;;2.65;1.67;;;;;;;12.28;100.00;98239.78;2603205;28;20092;-86
2023/08/08 01:01:34;;;;;;;4.45;1.77;;;;;;;12.48;100.00;98239.94;2603140;28;20069;-86
2023/08/08 01:02:50;;;;;;;3.63;1.85;;;;;;;12.27;100.00;98237.22;2603259;28;20634;-86
2023/08/08 01:04:06;;;;;;;3.38;1.67;;;;;;;12.43;100.00;98245.34;2592236;28;20054;-86
2023/08/08 01:05:22;;;;;;;3.35;1.75;;;;;;;12.42;100.00;98246.28;2596897;28;20045;-86
2023/08/08 01:06:57;;;;;;;2.85;1.83;;;;;;;12.51;100.00;98245.91;2603241;28;20051;-86
2023/08/08 01:08:16;;;;;;;3.33;2.00;;;;;;;12.48;100.00;98245.19;2603334;28;20084;-86
2023/08/08 01:09:44;;;;;;;4.03;2.00;;;;;;;12.38;100.00;98242.06;2603143;28;20041;-86
2023/08/08 01:11:01;;;;;;;3.35;2.10;;;;;;;12.33;100.00;98238.78;2603408;28;20529;-86
2023/08/08 01:12:16;;;;;;;4.45;2.10;;;;;;;12.38;100.00;98236.81;2603225;28;20061;-86
2023/08/08 01:13:33;;;;;;;4.68;2.10;;;;;;;12.22;100.00;98236.53;2603260;28;20057;-87
2023/08/08 01:14:50;;;;;;;3.40;2.10;;;;;;;12.09;100.00;98242.28;2603032;28;20481;-87
2023/08/08 01:16:06;;;;;;;4.70;2.28;;;;;;;12.25;100.00;98241.69;2603125;28;20096;-86
2023/08/08 01:17:25;;;;;;;4.93;1.80;;;;;;;12.29;100.00;98235.41;2603170;28;20124;-86
2023/08/08 01:18:41;;;;;;;2.85;1.90;;;;;;;12.16;100.00;98235.03;2603135;28;20052;-87
2023/08/08 01:19:57;;;;;;;3.97;2.00;;;;;;;12.10;100.00;98228.25;2603162;28;20047;-86
2023/08/08 01:21:15;;;;;;;3.75;2.05;;;;;;;11.80;100.00;98220.53;2603133;28;20189;-87
2023/08/08 01:23:14;;;;;;;2.60;1.80;;;;;;;11.66;100.00;98218.44;2603101;28;20127;-86
2023/08/08 01:24:32;;;;;;;2.90;2.00;;;;;;;11.49;100.00;98211.16;2590659;28;20424;-87
2023/08/08 01:25:48;;;;;;;2.58;1.83;;;;;;;11.60;100.00;98218.66;2603188;28;20045;-86
2023/08/08 01:27:05;;;;;;;4.00;1.75;;;;;;;11.57;100.00;98216.13;2603054;28;20087;-87
2023/08/08 01:28:24;;;;;;;5.50;2.10;;;;;;;11.46;100.00;98227.00;2602880;28;20041;-86
2023/08/08 01:29:41;;;;;;;5.32;2.00;;;;;;;11.51;100.00;98229.47;2603047;28;20049;-87
2023/08/08 01:30:57;;;;;;;4.10;2.30;;;;;;;11.57;100.00;98221.38;2602950;28;20116;-87
2023/08/08 01:32:13;;;;;;;3.45;2.00;;;;;;;11.44;100.00;98227.03;2603101;28;20041;-87
2023/08/08 01:33:28;;;;;;;2.88;2.03;;;;;;;11.36;100.00;98229.09;2603076;28;20049;-87
2023/08/08 01:34:44;;;;;;;3.53;2.25;;;;;;;11.21;100.00;98221.75;2602794;28;20037;-86
2023/08/08 01:36:07;;;;;;;2.40;1.90;;;;;;;11.25;100.00;98224.22;2603061;28;20056;-87
2023/08/08 01:37:32;;;;;;;3.67;1.70;;;;;;;10.97;100.00;98224.28;2591828;28;20445;-87
2023/08/08 01:38:51;;;;;;;5.53;2.58;;;;;;;10.91;100.00;98234.97;2597565;28;20780;-86
2023/08/08 01:40:10;;;;;;;2.90;1.92;;;;;;;10.71;100.00;98233.84;2602937;28;20521;-86
2023/08/08 01:41:26;;;;;;;5.18;2.40;;;;;;;10.75;100.00;98227.59;2602799;28;20052;-87
2023/08/08 01:42:44;;;;;;;4.28;2.33;;;;;;;10.55;100.00;98229.09;2602850;28;20056;-87
2023/08/08 01:44:02;;;;;;;4.00;2.25;;;;;;;10.69;100.00;98231.28;2602752;28;20124;-86
2023/08/08 01:45:19;;;;;;;7.93;2.70;;;;;;;10.80;100.00;98228.31;2591853;28;20413;-87
2023/08/08 01:46:36;;;;;;;5.82;2.63;;;;;;;10.71;100.00;98228.63;2596295;28;20069;-86
2023/08/08 01:47:52;;;;;;;4.72;2.40;;;;;;;10.82;100.00;98229.13;2602935;28;20441;-86
2023/08/08 01:49:07;;;;;;;3.30;2.13;;;;;;;10.67;100.00;98240.94;2602724;28;20053;-86
2023/08/08 01:50:23;;;;;;;4.95;2.13;;;;;;;10.74;100.00;98229.38;2602842;28;20049;-87
2023/08/08 01:51:38;;;;;;;5.38;2.42;;;;;;;10.68;100.00;98229.56;2602346;28;20092;-87
2023/08/08 01:52:56;;;;;;;4.68;2.22;;;;;;;10.98;100.00;98231.25;2602808;28;20045;-86
2023/08/08 01:54:12;;;;;;;4.90;2.45;;;;;;;11.08;100.00;98221.31;2602828;28;20380;-86
2023/08/08 01:55:28;;;;;;;3.95;2.45;;;;;;;11.15;100.00;98217.59;2602807;28;20045;-87
2023/08/08 01:56:44;;;;;;;3.42;2.03;;;;;;;11.16;100.00;98214.88;2602560;28;20446;-87
2023/08/08 01:57:59;;;;;;;4.78;2.17;;;;;;;11.22;100.00;98213.00;2602730;28;20050;-87
2023/08/08 01:59:15;;;;;;;3.92;2.20;;;;;;;10.98;100.00;98218.16;2602833;28;20046;-87
2023/08/08 02:00:31;;;;;;;3.17;2.13;;;;;;;11.00;100.00;98217.19;2602649;28;20393;-87
2023/08/08 02:01:46;;;;;;;5.00;2.42;;;;;;;11.08;100.00;98210.81;2602391;28;20064;-87
2023/08/08 02:03:03;;;;;;;4.10;2.10;;;;;;;11.06;100.00;98210.91;2602643;28;20049;-87
2023/08/08 02:04:20;;;;;;;4.50;2.40;;;;;;;10.90;100.00;98222.78;2602460;28;20068;-87
2023/08/08 02:05:35;;;;;;;3.78;2.15;;;;;;;10.93;100.00;98220.06;2591649;28;20079;-87
2023/08/08 02:06:51;;;;;;;4.00;2.28;;;;;;;10.87;100.00;98218.50;2595997;28;20508;-87
2023/08/08 02:08:06;;;;;;;3.78;2.30;;;;;;;10.71;100.00;98223.38;2602642;28;20041;-87
2023/08/08 02:09:22;;;;;;;3.08;2.05;;;;;;;10.76;100.00;98216.25;2602625;28;20076;-87
2023/08/08 02:10:38;;;;;;;4.40;2.40;;;;;;;10.65;100.00;98219.19;2602628;28;20067;-87
2023/08/08 02:11:53;;;;;;;4.50;2.10;;;;;;;10.36;100.00;98213.06;2602510;28;20053;-87
2023/08/08 02:13:09;;;;;;;4.93;2.55;;;;;;;10.45;100.00;98217.19;2602579;28;20531;-87
2023/08/08 02:14:24;;;;;;;3.63;2.55;;;;;;;10.69;100.00;98209.47;2602431;28;20386;-86
2023/08/08 02:15:40;;;;;;;6.93;2.20;;;;;;;10.65;100.00;98213.94;2602525;28;20068;-86
2023/08/08 02:16:55;;;;;;;5.05;2.60;;;;;;;10.78;100.00;98214.44;2602387;28;20046;-88
2023/08/08 02:18:11;;;;;;;3.92;2.30;;;;;;;10.92;100.00;98216.59;2602501;28;20042;-87
2023/08/08 02:19:26;;;;;;;5.25;2.13;;;;;;;10.87;100.00;98214.09;2602700;28;20049;-87
2023/08/08 02:20:42;;;;;;;5.45;2.40;;;;;;;10.98;100.00;98212.91;2602402;28;20049;-87
2023/08/08 02:21:58;;;;;;;5.50;2.63;;;;;;;11.18;100.00;98216.63;2602471;28;20107;-87
2023/08/08 02:23:13;;;;;;;3.83;2.10;;;;;;;11.17;100.00;98215.75;2602624;28;20046;-87
2023/08/08 02:24:29;;;;;;;4.55;2.20;;;;;;;10.93;100.00;98217.44;2602449;28;20045;-87
2023/08/08 02:25:44;;;;;;;6.10;2.65;;;;;;;10.62;100.00;98219.28;2602321;28;20056;-87
2023/08/08 02:27:00;;;;;;;5.93;2.05;;;;;;;10.58;100.00;98226.38;2591562;28;20046;-87
2023/08/08 02:28:15;;;;;;;5.72;2.60;;;;;;;10.98;100.00;98226.00;2595710;28;20057;-87
2023/08/08 02:29:31;;;;;;;6.15;2.50;;;;;;;11.09;100.00;98223.00;2602348;28;20486;-87
2023/08/08 02:30:47;;;;;;;4.05;2.50;;;;;;;11.14;100.00;98229.81;2602286;28;20045;-87
2023/08/08 02:32:02;;;;;;;4.20;2.42;;;;;;;11.16;100.00;98224.53;2602438;28;20057;-87
2023/08/08 02:33:18;;;;;;;3.35;2.22;;;;;;;11.32;100.00;98232.75;2602271;28;20037;-87
2023/08/08 02:34:33;;;;;;;3.47;2.13;;;;;;;11.37;100.00;98227.31;2602220;28;20100;-87
2023/08/08 02:35:49;;;;;;;2.95;1.80;;;;;;;11.52;100.00;98228.56;2602325;28;20128;-87
2023/08/08 02:37:05;;;;;;;3.72;2.60;;;;;;;11.70;100.00;98227.88;2591433;28;20431;-87
2023/08/08 02:38:20;;;;;;;5.63;2.20;;;;;;;11.89;100.00;98227.25;2595514;28;20068;-87
2023/08/08 02:39:36;;;;;;;4.32;2.05;;;;;;;12.04;100.00;98232.84;2602255;28;20041;-87
2023/08/08 02:40:52;;;;;;;3.85;1.83;;;;;;;12.04;100.00;98228.44;2602411;28;20046;-86
2023/08/08 02:42:08;;;;;;;3.95;2.35;;;;;;;11.93;100.00;98226.19;2602310;28;20068;-87
2023/08/08 02:43:23;;;;;;;6.13;2.05;;;;;;;12.02;100.00;98230.28;2591187;28;20045;-87
2023/08/08 02:44:39;;;;;;;5.07;1.73;;;;;;;12.09;100.00;98228.28;2585140;28;20555;-87
2023/08/08 02:45:55;;;;;;;4.45;1.83;;;;;;;12.05;100.00;98222.28;2595609;28;20045;-87
2023/08/08 02:47:10;;;;;;;5.55;2.00;;;;;;;12.14;100.00;98223.69;2602238;28;20049;-87
2023/08/08 02:48:26;;;;;;;3.70;2.08;;;;;;;12.13;100.00;98224.63;2591165;28;20053;-87
2023/08/08 02:49:42;;;;;;;3.47;2.13;;;;;;;12.16;100.00;98219.28;2595711;28;20116;-86
2023/08/08 02:50:57;;;;;;;3.70;1.60;;;;;;;12.17;100.00;98221.00;2602110;28;20041;-87
2023/08/08 02:52:13;;;;;;;3.22;1.80;;;;;;;12.20;100.00;98220.88;2602229;28;20041;-87
2023/08/08 02:53:28;;;;;;;3.03;1.63;;;;;;;12.25;100.00;98218.91;2602118;28;20041;-87
2023/08/08 02:54:44;;;;;;;3.80;1.92;;;;;;;12.30;100.00;98208.22;2591060;28;20548;-87
2023/08/08 02:55:59;;;;;;;3.25;1.70;;;;;;;12.33;100.00;98215.16;2595462;28;20046;-87
2023/08/08 02:57:16;;;;;;;5.25;1.80;;;;;;;12.36;100.00;98215.03;2602308;28;20045;-87
2023/08/08 02:58:31;;;;;;;4.93;1.83;;;;;;;12.24;100.00;98211.94;2602180;28;20046;-87
2023/08/08 02:59:47;;;;;;;2.88;2.17;;;;;;;12.28;100.00;98221.41;2601956;28;20041;-87
2023/08/08 03:01:03;;;;;;;4.18;1.90;;;;;;;12.07;100.00;98217.00;2602313;28;20045;-87
2023/08/08 03:02:18;;;;;;;3.92;1.73;;;;;;;12.04;100.00;98217.13;2601926;28;20060;-87
2023/08/08 03:03:34;;;;;;;2.67;2.00;;;;;;;12.15;100.00;98220.16;2601271;28;20092;-87
2023/08/08 03:04:50;;;;;;;4.35;2.10;;;;;;;12.24;100.00;98217.19;2601969;28;20056;-87
2023/08/08 03:06:06;;;;;;;3.78;1.73;;;;;;;12.21;100.00;98219.94;2602193;28;20511;-86
2023/08/08 03:07:21;;;;;;;3.78;1.85;;;;;;;12.19;100.00;98216.53;2602066;28;20049;-86
2023/08/08 03:08:37;;;;;;;2.67;1.85;;;;;;;12.32;100.00;98210.81;2602117;28;20053;-87
2023/08/08 03:09:53;;;;;;;5.07;2.30;;;;;;;12.28;100.00;98210.06;2602165;28;20060;-87
2023/08/08 03:11:08;;;;;;;3.50;2.10;;;;;;;12.38;100.00;98202.69;2602015;28;20052;-86
2023/08/08 03:12:24;;;;;;;2.03;1.70;;;;;;;12.24;100.00;98213.72;2602033;28;20045;-87
2023/08/08 03:13:39;;;;;;;7.03;2.30;;;;;;;12.36;100.00;98213.25;2601981;28;20046;-87
2023/08/08 03:14:55;;;;;;;3.17;1.98;;;;;;;12.37;100.00;98214.09;2602130;28;20045;-87
2023/08/08 03:16:10;;;;;;;5.47;2.00;;;;;;;12.42;100.00;98214.75;2601894;28;20045;-86
2023/08/08 03:17:26;;;;;;;3.92;1.80;;;;;;;12.55;100.00;98217.78;2602111;28;20068;-86
2023/08/08 03:18:41;;;;;;;2.63;1.60;;;;;;;12.49;100.00;98213.63;2602028;28;20465;-87
2023/08/08 03:19:57;;;;;;;2.67;1.85;;;;;;;12.64;100.00;98217.41;2601919;28;20045;-87
2023/08/08 03:21:12;;;;;;;3.45;2.60;;;;;;;12.59;100.00;98213.25;2602066;28;20046;-86
2023/08/08 03:22:28;;;;;;;3.17;1.83;;;;;;;12.56;100.00;98214.22;2602096;28;20401;-87
2023/08/08 03:23:44;;;;;;;4.43;1.50;;;;;;;12.59;100.00;98226.41;2601882;28;20045;-86
2023/08/08 03:24:59;;;;;;;2.75;1.88;;;;;;;12.63;100.00;98226.19;2601759;28;20096;-87
2023/08/08 03:26:15;;;;;;;3.35;1.50;;;;;;;12.54;100.00;98222.16;2602033;28;20382;-86
2023/08/08 03:27:31;;;;;;;3.70;1.73;;;;;;;12.36;100.00;98222.91;2602075;28;20446;-87
2023/08/08 03:28:50;;;;;;;4.13;1.77;;;;;;;12.35;100.00;98226.44;2601868;28;20037;-86
2023/08/08 03:30:06;;;;;;;2.78;2.00;;;;;;;12.45;100.00;98219.06;2601846;28;20073;-86
2023/08/08 03:31:22;;;;;;;6.40;2.20;;;;;;;12.52;100.00;98213.50;2601853;28;20060;-87
2023/08/08 03:32:39;;;;;;;6.57;1.92;;;;;;;12.60;100.00;98226.31;2601906;28;20076;-87
2023/08/08 03:33:54;;;;;;;5.15;2.10;;;;;;;12.64;100.00;98227.06;2601865;28;20136;-86
2023/08/08 03:35:10;;;;;;;4.13;1.92;;;;;;;12.62;100.00;98221.84;2601923;28;20057;-86
2023/08/08 03:36:25;;;;;;;2.88;1.90;;;;;;;12.53;100.00;98223.06;2601770;28;20041;-87
2023/08/08 03:37:42;;;;;;;4.65;2.00;;;;;;;12.56;100.00;98217.69;2601956;28;20490;-87
2023/08/08 03:38:57;;;;;;;2.70;1.90;;;;;;;12.45;100.00;98217.28;2602010;28;20537;-86
2023/08/08 03:40:14;;;;;;;2.72;1.80;;;;;;;12.49;100.00;98212.75;2601860;28;20049;-86
2023/08/08 03:41:30;;;;;;;3.55;1.70;;;;;;;12.45;100.00;98211.19;2601901;28;20045;-87
2023/08/08 03:42:45;;;;;;;3.38;1.70;;;;;;;12.21;100.00;98214.69;2601929;28;20405;-87
2023/08/08 03:44:02;;;;;;;3.97;2.35;;;;;;;12.04;100.00;98209.25;2601727;28;20203;-87
2023/08/08 03:45:18;;;;;;;5.68;2.00;;;;;;;12.17;100.00;98215.75;2601886;28;20045;-86
2023/08/08 03:46:34;;;;;;;3.97;2.10;;;;;;;12.31;100.00;98209.94;2601908;28;20052;-87
2023/08/08 03:47:50;;;;;;;2.75;2.10;;;;;;;12.42;100.00;98213.00;2601804;28;20120;-87
2023/08/08 03:49:05;;;;;;;4.75;2.15;;;;;;;12.45;100.00;98212.03;2601795;28;20041;-87
2023/08/08 03:50:21;;;;;;;4.53;1.98;;;;;;;12.09;100.00;98215.16;2601896;28;20521;-87
2023/08/08 03:51:36;;;;;;;4.18;2.05;;;;;;;12.18;100.00;98209.56;2601755;28;20052;-87
2023/08/08 03:52:52;;;;;;;3.03;1.95;;;;;;;12.30;100.00;98208.22;2601937;28;20052;-87
2023/08/08 03:54:08;;;;;;;2.55;1.85;;;;;;;12.30;100.00;98208.22;2601841;28;20045;-87
2023/08/08 03:55:25;;;;;;;4.35;2.20;;;;;;;12.26;100.00;98214.53;2601822;28;20453;-87
2023/08/08 03:56:40;;;;;;;2.88;1.98;;;;;;;12.36;100.00;98213.25;2590866;28;20070;-87
2023/08/08 03:57:56;;;;;;;2.72;1.90;;;;;;;12.09;100.00;98204.66;2595327;28;20049;-87
2023/08/08 03:59:11;;;;;;;3.40;2.30;;;;;;;11.97;100.00;98211.22;2601726;28;20095;-86
2023/08/08 04:00:28;;;;;;;3.40;2.00;;;;;;;12.14;100.00;98206.19;2601757;28;20052;-86
2023/08/08 04:01:44;;;;;;;3.50;2.00;;;;;;;12.15;100.00;98210.53;2601619;28;20092;-86
2023/08/08 04:02:59;;;;;;;2.40;1.80;;;;;;;12.27;100.00;98205.72;2601854;28;20049;-86
2023/08/08 04:04:15;;;;;;;2.17;1.60;;;;;;;12.34;100.00;98208.97;2601582;28;20517;-86
2023/08/08 04:05:30;;;;;;;3.33;1.95;;;;;;;12.29;100.00;98215.28;2601828;28;20049;-86
2023/08/08 04:06:46;;;;;;;3.20;1.90;;;;;;;12.29;100.00;98217.91;2601841;28;20057;-86
2023/08/08 04:08:01;;;;;;;2.40;1.85;;;;;;;12.24;100.00;98213.72;2601718;28;20045;-88
2023/08/08 04:09:17;;;;;;;2.65;1.92;;;;;;;12.44;100.00;98223.47;2601723;28;20121;-86
2023/08/08 04:10:33;;;;;;;1.75;1.50;;;;;;;12.48;100.00;98225.03;2601790;28;20061;-86
2023/08/08 04:11:48;;;;;;;2.10;1.70;;;;;;;12.59;100.00;98224.63;2601734;28;20057;-86
2023/08/08 04:13:04;;;;;;;1.85;1.55;;;;;;;12.45;100.00;98221.69;2601623;28;20093;-86
2023/08/08 04:14:19;;;;;;;2.15;1.67;;;;;;;12.36;100.00;98222.91;2602197;28;20120;-86
2023/08/08 04:15:35;;;;;;;3.85;2.17;;;;;;;12.56;100.00;98220.31;2603652;28;20046;-86
2023/08/08 04:16:50;;;;;;;3.95;2.72;;;;;;;12.54;100.00;98223.94;2603691;28;20469;-86
2023/08/08 04:18:06;;;;;;;3.17;2.22;;;;;;;12.50;100.00;98220.59;2603645;28;20144;-86
2023/08/08 04:19:23;;;;;;;3.15;2.80;;;;;;;12.49;100.00;98218.88;2603642;28;20060;-86
2023/08/08 04:20:38;;;;;;;3.55;2.97;;;;;;;12.45;100.00;98225.16;2603579;28;20102;-87
2023/08/08 04:21:54;;;;;;;3.40;2.50;;;;;;;12.47;100.00;98225.09;2603668;28;20041;-86
2023/08/08 04:23:09;;;;;;;5.75;2.30;;;;;;;12.48;100.00;98224.16;2603614;28;20045;-86
2023/08/08 04:24:25;;;;;;;3.75;2.55;;;;;;;12.41;100.00;98231.44;2603387;28;20045;-86
2023/08/08 04:25:40;;;;;;;2.92;2.40;;;;;;;12.33;100.00;98231.72;2603662;28;20100;-86
2023/08/08 04:26:56;;;;;;;5.00;2.00;;;;;;;12.27;100.00;98230.19;2603664;28;20050;-86
2023/08/08 04:28:12;;;;;;;4.03;2.25;;;;;;;12.38;100.00;98226.31;2603500;28;20076;-87
2023/08/08 04:29:27;;;;;;;6.07;2.25;;;;;;;12.35;100.00;98226.44;2603243;28;20049;-87
2023/08/08 04:30:43;;;;;;;13.30;2.58;;;;;;;12.34;100.00;98224.72;2603433;28;20120;-87
2023/08/08 04:31:58;;;;;;;4.05;2.30;;;;;;;12.25;100.00;98229.41;2603493;28;20485;-86
2023/08/08 04:33:14;;;;;;;2.65;2.17;;;;;;;12.34;100.00;98235.22;2603396;28;20056;-86
2023/08/08 04:34:29;;;;;;;3.00;1.63;;;;;;;12.36;100.00;98228.16;2603475;28;20046;-87
2023/08/08 04:35:45;;;;;;;2.88;2.10;;;;;;;12.50;100.00;98231.09;2592523;28;20049;-86
2023/08/08 04:37:00;;;;;;;2.33;1.80;;;;;;;12.48;100.00;98237.31;2596788;28;20397;-86
2023/08/08 04:38:16;;;;;;;3.38;1.60;;;;;;;12.45;100.00;98247.94;2603407;28;20141;-86
2023/08/08 04:39:31;;;;;;;2.85;1.83;;;;;;;12.61;100.00;98249.03;2603266;28;20045;-86
2023/08/08 04:40:47;;;;;;;2.70;1.92;;;;;;;12.72;100.00;98240.75;2603571;28;20046;-86
2023/08/08 04:42:03;;;;;;;3.17;2.25;;;;;;;12.68;100.00;98247.03;2603359;28;20057;-86
2023/08/08 04:43:18;;;;;;;3.50;2.40;;;;;;;12.73;100.00;98239.84;2603380;28;20042;-86
2023/08/08 04:44:34;;;;;;;2.63;1.70;;;;;;;12.82;100.00;98241.22;2603329;28;20072;-86
2023/08/08 04:45:50;;;;;;;3.40;2.03;;;;;;;12.81;100.00;98243.00;2603448;28;20053;-87
2023/08/08 04:47:06;;;;;;;2.85;1.85;;;;;;;12.91;100.00;98242.63;2603427;28;20046;-86
2023/08/08 04:48:22;;;;;;;2.90;1.70;;;;;;;12.98;100.00;98241.44;2603322;28;20053;-86
2023/08/08 04:49:37;;;;;;;2.03;1.70;;;;;;;12.94;100.00;98245.13;2592302;28;20110;-86
2023/08/08 04:50:52;;;;;;;2.47;1.75;;;;;;;12.88;100.00;98243.59;2596746;28;20477;-86
2023/08/08 04:52:08;;;;;;;3.88;1.90;;;;;;;12.67;100.00;98242.69;2603377;28;20041;-85
2023/08/08 04:53:24;;;;;;;2.75;2.17;;;;;;;12.87;100.00;98236.63;2603330;28;20069;-86
2023/08/08 04:54:39;;;;;;;3.35;1.80;;;;;;;13.10;100.00;98233.06;2603167;28;20056;-86
2023/08/08 04:55:55;;;;;;;2.95;1.88;;;;;;;12.97;100.00;98226.59;2603284;28;20056;-85
2023/08/08 04:57:10;;;;;;;3.83;1.80;;;;;;;13.07;100.00;98224.47;2603363;28;20060;-86
2023/08/08 04:58:26;;;;;;;2.97;1.90;;;;;;;12.85;100.00;98225.34;2603242;28;20084;-86
2023/08/08 04:59:42;;;;;;;4.35;2.03;;;;;;;12.97;100.00;98230.09;2603071;28;20042;-86
2023/08/08 05:00:58;;;;;;;4.03;2.33;;;;;;;12.87;100.00;98223.50;2603405;28;20045;-86
2023/08/08 05:02:14;;;;;;;3.35;2.20;;;;;;;12.79;100.00;98234.31;2603088;28;20045;-86
2023/08/08 05:03:29;;;;;;;2.90;1.60;;;;;;;12.71;100.00;98228.50;2603193;28;20088;-86
2023/08/08 05:04:46;;;;;;;2.10;1.67;;;;;;;12.55;100.00;98231.75;2603111;28;20448;-86
2023/08/08 05:06:02;;;;;;;3.63;2.40;;;;;;;12.85;100.00;98230.59;2603147;28;20055;-85
2023/08/08 05:07:18;;;;;;;2.97;2.35;;;;;;;12.95;100.00;98234.56;2603271;28;20505;-85
2023/08/08 05:08:34;;;;;;;2.80;2.20;;;;;;;12.87;100.00;98225.28;2603192;28;20065;-86
2023/08/08 05:09:49;;;;;;;3.47;2.28;;;;;;;12.88;100.00;98224.38;2602997;28;20041;-86
2023/08/08 05:11:05;;;;;;;3.80;2.22;;;;;;;12.93;100.00;98228.53;2603157;28;20065;-86
2023/08/08 05:12:20;;;;;;;3.10;1.90;;;;;;;12.74;100.00;98231.03;2603261;28;20041;-86
2023/08/08 05:13:36;;;;;;;3.30;2.47;;;;;;;12.97;100.00;98222.22;2603101;28;20047;-86
2023/08/08 05:14:51;;;;;;;3.45;1.80;;;;;;;12.82;100.00;98223.69;2603001;28;20041;-88
2023/08/08 05:16:07;;;;;;;4.00;1.95;;;;;;;12.82;100.00;98223.69;2603072;28;20049;-86
2023/08/08 05:17:23;;;;;;;2.60;1.95;;;;;;;12.84;100.00;98219.22;2603260;28;20053;-85
2023/08/08 05:18:40;;;;;;;2.53;1.88;;;;;;;12.83;100.00;98216.66;2602999;28;20041;-85
2023/08/08 05:19:56;;;;;;;1.55;1.20;;;;;;;12.84;100.00;98218.38;2602950;28;20049;-85
2023/08/08 05:21:11;;;;;;;4.85;1.77;;;;;;;12.81;100.00;98219.34;2603023;28;20071;-85
2023/08/08 05:22:26;;;;;;;1.70;1.30;;;;;;;12.90;100.00;98222.53;2603045;28;20485;-85
2023/08/08 05:23:42;;;;;;;2.67;1.80;;;;;;;13.14;100.00;98218.88;2603046;28;20061;-85
2023/08/08 05:24:58;;;;;;;1.90;1.33;;;;;;;13.09;100.00;98220.84;2602978;28;20045;-85
2023/08/08 05:26:15;;;;;;;2.10;1.67;;;;;;;13.13;100.00;98218.94;2602191;28;20417;-85
2023/08/08 05:27:31;;;;;;;3.30;2.38;;;;;;;13.22;100.00;98221.19;2602945;28;20045;-86
2023/08/08 05:28:46;;;;;;;3.55;2.28;;;;;;;13.13;100.00;98227.69;2602990;28;20048;-85
2023/08/08 05:30:02;;;;;;;2.35;1.73;;;;;;;13.29;100.00;98227.03;2602931;28;20547;-85
2023/08/08 05:31:18;;;;;;;3.75;2.03;;;;;;;13.31;100.00;98214.69;2602869;28;20510;-86
2023/08/08 05:32:33;;;;;;;2.08;1.50;;;;;;;13.26;100.00;98219.25;2603003;28;20073;-85
2023/08/08 05:33:49;;;;;;;3.80;1.85;;;;;;;13.23;100.00;98225.53;2602889;28;20445;-85
2023/08/08 05:35:05;;;;;;;2.55;2.05;;;;;;;13.53;100.00;98211.13;2602922;28;20065;-85
2023/08/08 05:36:21;;;;;;;2.70;2.38;;;;;;;13.68;100.00;98213.09;2602818;28;20084;-85
2023/08/08 05:37:36;;;;;;;3.10;1.85;;;;;;;13.46;100.00;98215.81;2602979;28;20046;-85
2023/08/08 05:38:52;;;;;;;4.75;2.25;;;;;;;13.60;100.00;98212.59;2602908;28;20041;-85
2023/08/08 05:40:07;;;;;;;3.15;2.38;;;;;;;13.59;100.00;98218.78;2602735;28;20045;-85
2023/08/08 05:41:23;;;;;;;3.47;1.95;;;;;;;13.50;100.00;98216.53;2602889;28;20077;-85
2023/08/08 05:42:39;;;;;;;3.50;2.10;;;;;;;13.61;100.00;98221.31;2602864;28;20049;-86
2023/08/08 05:43:55;;;;;;;3.22;2.22;;;;;;;13.56;100.00;98222.38;2602807;28;20132;-85
2023/08/08 05:45:10;;;;;;;3.92;2.33;;;;;;;13.59;100.00;98218.78;2602801;28;20052;-86
2023/08/08 05:46:26;;;;;;;3.90;2.40;;;;;;;13.75;100.00;98218.09;2602799;28;20069;-85
2023/08/08 05:47:41;;;;;;;3.55;2.35;;;;;;;13.73;100.00;98214.69;2602735;28;20445;-85
2023/08/08 05:48:57;;;;;;;3.50;2.05;;;;;;;13.69;100.00;98225.34;2591632;28;20045;-86
2023/08/08 05:50:13;;;;;;;6.13;2.45;;;;;;;14.07;100.00;98223.66;2596247;28;20568;-85
2023/08/08 05:51:28;;;;;;;2.70;1.45;;;;;;;13.67;100.00;98216.63;2602842;28;20046;-85
2023/08/08 05:52:43;;;;;;;2.88;2.30;;;;;;;13.97;100.00;98217.97;2602688;28;20045;-85
2023/08/08 05:53:59;;;;;;;3.45;2.00;;;;;;;13.99;100.00;98218.75;2602733;28;20046;-85